Chicago, Illinois
Traffic Map
Current Weather Conditions
Chicago, Illinois
Broken Clouds
Broken Clouds
29°
Feels Like: 29°
Wind Chill: 29° Ceiling: 25000
Heat Index: 29° Visibility: 10mi
Dew Point: 17° Wind: 7mph
Humidity: 47% Direction: 230° (SW)
Pressure: 29.84in Gusts: 0mph
Raw Report DataKMDW 262353Z 23006KT 10SM FEW055 BKN250 29/17 A2984 RMK AO2 SLP094 T02890167 10294 20256 55005
Traffic Incident Summary
Active as of:
Severity:
Category:
InformationThere was an issue retrieving the traffic information for this location. Please try a different location or try again shortly.
Advertisements
Track Severe Weather on mobile